sensor_id;sensor_type;location;lat;lon;timestamp;temperature;humidity
22098;DHT22;11215;51.938;8.464;2022-09-09T00:03:41;19.90;62.50
22098;DHT22;11215;51.938;8.464;2022-09-09T00:06:21;19.80;62.30
22098;DHT22;11215;51.938;8.464;2022-09-09T00:11:17;19.80;62.00
22098;DHT22;11215;51.938;8.464;2022-09-09T00:13:52;19.80;62.20
22098;DHT22;11215;51.938;8.464;2022-09-09T00:16:24;19.80;62.30
22098;DHT22;11215;51.938;8.464;2022-09-09T00:22:36;19.80;62.70
22098;DHT22;11215;51.938;8.464;2022-09-09T00:24:53;19.80;62.80
22098;DHT22;11215;51.938;8.464;2022-09-09T00:27:32;19.80;62.60
22098;DHT22;11215;51.938;8.464;2022-09-09T00:30:24;19.80;62.70
22098;DHT22;11215;51.938;8.464;2022-09-09T00:32:54;19.70;63.00
22098;DHT22;11215;51.938;8.464;2022-09-09T00:35:35;19.80;62.80
22098;DHT22;11215;51.938;8.464;2022-09-09T00:38:15;19.80;62.90
22098;DHT22;11215;51.938;8.464;2022-09-09T00:43:36;19.70;62.90
22098;DHT22;11215;51.938;8.464;2022-09-09T00:52:08;19.70;62.90
22098;DHT22;11215;51.938;8.464;2022-09-09T00:55:11;19.70;62.90
22098;DHT22;11215;51.938;8.464;2022-09-09T00:57:38;19.70;63.20
22098;DHT22;11215;51.938;8.464;2022-09-09T01:10:52;19.60;63.30
22098;DHT22;11215;51.938;8.464;2022-09-09T01:13:28;19.60;63.20
22098;DHT22;11215;51.938;8.464;2022-09-09T01:16:01;19.60;63.60
22098;DHT22;11215;51.938;8.464;2022-09-09T01:18:38;19.60;63.50
22098;DHT22;11215;51.938;8.464;2022-09-09T01:28:59;19.60;63.90
22098;DHT22;11215;51.938;8.464;2022-09-09T01:31:34;19.60;63.50
22098;DHT22;11215;51.938;8.464;2022-09-09T01:34:01;19.60;63.90
22098;DHT22;11215;51.938;8.464;2022-09-09T01:36:44;19.60;63.70
22098;DHT22;11215;51.938;8.464;2022-09-09T01:39:12;19.60;64.10
22098;DHT22;11215;51.938;8.464;2022-09-09T01:41:38;19.60;63.80
22098;DHT22;11215;51.938;8.464;2022-09-09T01:44:04;19.60;63.90
22098;DHT22;11215;51.938;8.464;2022-09-09T01:46:30;19.60;64.00
22098;DHT22;11215;51.938;8.464;2022-09-09T01:48:57;19.60;64.00
22098;DHT22;11215;51.938;8.464;2022-09-09T01:51:24;19.60;64.10
22098;DHT22;11215;51.938;8.464;2022-09-09T01:53:50;19.60;64.10
22098;DHT22;11215;51.938;8.464;2022-09-09T02:04:40;19.70;64.00
22098;DHT22;11215;51.938;8.464;2022-09-09T02:07:22;19.70;63.90
22098;DHT22;11215;51.938;8.464;2022-09-09T02:10:11;19.70;63.80
22098;DHT22;11215;51.938;8.464;2022-09-09T02:12:44;19.70;63.70
22098;DHT22;11215;51.938;8.464;2022-09-09T02:18:07;19.60;63.90
22098;DHT22;11215;51.938;8.464;2022-09-09T02:20:38;19.70;63.60
22098;DHT22;11215;51.938;8.464;2022-09-09T02:23:05;19.60;63.70
22098;DHT22;11215;51.938;8.464;2022-09-09T02:25:35;19.60;63.70
22098;DHT22;11215;51.938;8.464;2022-09-09T02:28:03;19.60;63.70
22098;DHT22;11215;51.938;8.464;2022-09-09T02:30:32;19.60;63.80
22098;DHT22;11215;51.938;8.464;2022-09-09T02:33:01;19.60;63.80
22098;DHT22;11215;51.938;8.464;2022-09-09T02:35:30;19.60;63.90
22098;DHT22;11215;51.938;8.464;2022-09-09T02:38:01;19.60;64.00
22098;DHT22;11215;51.938;8.464;2022-09-09T02:40:27;19.50;64.10
22098;DHT22;11215;51.938;8.464;2022-09-09T02:42:54;19.60;64.20
22098;DHT22;11215;51.938;8.464;2022-09-09T02:45:25;19.60;64.40
22098;DHT22;11215;51.938;8.464;2022-09-09T02:50:32;19.60;64.50
22098;DHT22;11215;51.938;8.464;2022-09-09T02:53:17;19.60;64.70
22098;DHT22;11215;51.938;8.464;2022-09-09T02:56:00;19.60;65.00
22098;DHT22;11215;51.938;8.464;2022-09-09T02:58:29;19.60;64.80
22098;DHT22;11215;51.938;8.464;2022-09-09T03:00:56;19.60;64.50
22098;DHT22;11215;51.938;8.464;2022-09-09T03:03:23;19.60;64.60
22098;DHT22;11215;51.938;8.464;2022-09-09T03:05:49;19.60;64.60
22098;DHT22;11215;51.938;8.464;2022-09-09T03:08:16;19.60;64.50
22098;DHT22;11215;51.938;8.464;2022-09-09T03:10:42;19.60;64.60
22098;DHT22;11215;51.938;8.464;2022-09-09T03:13:08;19.60;64.50
22098;DHT22;11215;51.938;8.464;2022-09-09T03:15:34;19.60;64.50
22098;DHT22;11215;51.938;8.464;2022-09-09T03:18:00;19.60;64.50
22098;DHT22;11215;51.938;8.464;2022-09-09T03:20:29;19.60;64.60
22098;DHT22;11215;51.938;8.464;2022-09-09T03:22:56;19.60;64.80
22098;DHT22;11215;51.938;8.464;2022-09-09T03:25:22;19.60;64.70
22098;DHT22;11215;51.938;8.464;2022-09-09T03:27:52;19.60;64.60
22098;DHT22;11215;51.938;8.464;2022-09-09T03:30:29;19.60;64.60
22098;DHT22;11215;51.938;8.464;2022-09-09T03:32:55;19.60;64.80
22098;DHT22;11215;51.938;8.464;2022-09-09T03:35:20;19.60;64.60
22098;DHT22;11215;51.938;8.464;2022-09-09T03:37:46;19.60;65.50
22098;DHT22;11215;51.938;8.464;2022-09-09T03:40:12;19.60;64.70
22098;DHT22;11215;51.938;8.464;2022-09-09T03:42:38;19.60;64.80
22098;DHT22;11215;51.938;8.464;2022-09-09T03:45:06;19.60;64.80
22098;DHT22;11215;51.938;8.464;2022-09-09T03:47:33;19.60;64.90
22098;DHT22;11215;51.938;8.464;2022-09-09T03:49:58;19.60;64.80
22098;DHT22;11215;51.938;8.464;2022-09-09T03:52:25;19.60;64.90
22098;DHT22;11215;51.938;8.464;2022-09-09T03:54:52;19.60;65.00
22098;DHT22;11215;51.938;8.464;2022-09-09T03:57:18;19.60;65.00
22098;DHT22;11215;51.938;8.464;2022-09-09T03:59:44;19.60;65.00
22098;DHT22;11215;51.938;8.464;2022-09-09T04:02:10;19.60;65.00
22098;DHT22;11215;51.938;8.464;2022-09-09T04:04:36;19.60;65.00
22098;DHT22;11215;51.938;8.464;2022-09-09T04:07:01;19.60;65.10
22098;DHT22;11215;51.938;8.464;2022-09-09T04:09:27;19.60;65.10
22098;DHT22;11215;51.938;8.464;2022-09-09T04:11:53;19.60;65.20
22098;DHT22;11215;51.938;8.464;2022-09-09T04:14:20;19.60;65.20
22098;DHT22;11215;51.938;8.464;2022-09-09T04:16:45;19.60;65.30
22098;DHT22;11215;51.938;8.464;2022-09-09T04:19:12;19.60;65.20
22098;DHT22;11215;51.938;8.464;2022-09-09T04:21:39;19.60;65.20
22098;DHT22;11215;51.938;8.464;2022-09-09T04:24:06;19.60;65.40
22098;DHT22;11215;51.938;8.464;2022-09-09T04:26:32;19.60;65.50
22098;DHT22;11215;51.938;8.464;2022-09-09T04:28:58;19.60;65.60
22098;DHT22;11215;51.938;8.464;2022-09-09T04:31:24;19.60;65.70
22098;DHT22;11215;51.938;8.464;2022-09-09T04:33:50;19.50;65.80
22098;DHT22;11215;51.938;8.464;2022-09-09T04:36:16;19.50;66.00
22098;DHT22;11215;51.938;8.464;2022-09-09T04:38:43;19.50;66.20
22098;DHT22;11215;51.938;8.464;2022-09-09T04:41:10;19.50;66.30
22098;DHT22;11215;51.938;8.464;2022-09-09T04:43:37;19.50;66.40
22098;DHT22;11215;51.938;8.464;2022-09-09T04:46:03;19.50;66.60
22098;DHT22;11215;51.938;8.464;2022-09-09T04:48:28;19.50;66.70
22098;DHT22;11215;51.938;8.464;2022-09-09T04:50:59;19.50;66.80
22098;DHT22;11215;51.938;8.464;2022-09-09T04:53:25;19.50;67.10
22098;DHT22;11215;51.938;8.464;2022-09-09T04:55:52;19.50;66.90
22098;DHT22;11215;51.938;8.464;2022-09-09T04:58:18;19.50;67.00
22098;DHT22;11215;51.938;8.464;2022-09-09T05:00:43;19.50;67.20
22098;DHT22;11215;51.938;8.464;2022-09-09T05:03:09;19.50;67.20
22098;DHT22;11215;51.938;8.464;2022-09-09T05:05:35;19.50;67.20
22098;DHT22;11215;51.938;8.464;2022-09-09T05:08:06;19.40;67.30
22098;DHT22;11215;51.938;8.464;2022-09-09T05:10:33;19.40;67.40
22098;DHT22;11215;51.938;8.464;2022-09-09T05:12:59;19.40;67.40
22098;DHT22;11215;51.938;8.464;2022-09-09T05:15:25;19.40;67.40
22098;DHT22;11215;51.938;8.464;2022-09-09T05:17:50;19.40;67.50
22098;DHT22;11215;51.938;8.464;2022-09-09T05:20:18;19.40;67.50
22098;DHT22;11215;51.938;8.464;2022-09-09T05:22:44;19.40;67.60
22098;DHT22;11215;51.938;8.464;2022-09-09T05:25:09;19.40;67.60
22098;DHT22;11215;51.938;8.464;2022-09-09T05:27:35;19.40;67.70
22098;DHT22;11215;51.938;8.464;2022-09-09T05:30:01;19.40;67.80
22098;DHT22;11215;51.938;8.464;2022-09-09T05:32:26;19.40;67.90
22098;DHT22;11215;51.938;8.464;2022-09-09T05:34:53;19.40;67.90
22098;DHT22;11215;51.938;8.464;2022-09-09T05:37:19;19.40;67.90
22098;DHT22;11215;51.938;8.464;2022-09-09T05:39:44;19.40;67.90
22098;DHT22;11215;51.938;8.464;2022-09-09T05:42:10;19.50;68.10
22098;DHT22;11215;51.938;8.464;2022-09-09T05:44:36;19.50;68.10
22098;DHT22;11215;51.938;8.464;2022-09-09T05:47:03;19.50;68.10
22098;DHT22;11215;51.938;8.464;2022-09-09T05:49:28;19.50;68.10
22098;DHT22;11215;51.938;8.464;2022-09-09T05:51:54;19.50;68.10
22098;DHT22;11215;51.938;8.464;2022-09-09T05:54:20;19.50;68.20
22098;DHT22;11215;51.938;8.464;2022-09-09T05:56:45;19.50;68.20
22098;DHT22;11215;51.938;8.464;2022-09-09T05:59:11;19.60;68.20
22098;DHT22;11215;51.938;8.464;2022-09-09T06:01:37;19.60;68.20
22098;DHT22;11215;51.938;8.464;2022-09-09T06:04:05;19.60;68.10
22098;DHT22;11215;51.938;8.464;2022-09-09T06:06:36;19.60;68.10
22098;DHT22;11215;51.938;8.464;2022-09-09T06:09:03;19.60;68.20
22098;DHT22;11215;51.938;8.464;2022-09-09T06:11:32;19.70;68.30
22098;DHT22;11215;51.938;8.464;2022-09-09T06:13:58;19.70;68.40
22098;DHT22;11215;51.938;8.464;2022-09-09T06:16:26;19.70;68.30
22098;DHT22;11215;51.938;8.464;2022-09-09T06:18:53;19.70;68.40
22098;DHT22;11215;51.938;8.464;2022-09-09T06:21:21;19.80;68.50
22098;DHT22;11215;51.938;8.464;2022-09-09T06:23:47;19.80;68.70
22098;DHT22;11215;51.938;8.464;2022-09-09T06:26:22;19.80;68.70
22098;DHT22;11215;51.938;8.464;2022-09-09T06:28:50;19.80;69.20
22098;DHT22;11215;51.938;8.464;2022-09-09T06:31:19;19.90;69.10
22098;DHT22;11215;51.938;8.464;2022-09-09T06:33:53;19.90;69.10
22098;DHT22;11215;51.938;8.464;2022-09-09T06:36:27;20.00;69.40
22098;DHT22;11215;51.938;8.464;2022-09-09T06:38:54;20.10;69.40
22098;DHT22;11215;51.938;8.464;2022-09-09T06:41:22;20.10;68.90
22098;DHT22;11215;51.938;8.464;2022-09-09T06:43:48;20.20;68.80
22098;DHT22;11215;51.938;8.464;2022-09-09T06:46:22;20.20;68.70
22098;DHT22;11215;51.938;8.464;2022-09-09T06:48:48;20.20;68.80
22098;DHT22;11215;51.938;8.464;2022-09-09T06:51:22;20.20;68.30
22098;DHT22;11215;51.938;8.464;2022-09-09T06:53:52;20.30;68.60
22098;DHT22;11215;51.938;8.464;2022-09-09T06:56:38;20.30;68.50
22098;DHT22;11215;51.938;8.464;2022-09-09T06:59:07;20.30;68.80
22098;DHT22;11215;51.938;8.464;2022-09-09T07:01:38;20.30;68.20
22098;DHT22;11215;51.938;8.464;2022-09-09T07:04:06;20.30;68.20
22098;DHT22;11215;51.938;8.464;2022-09-09T07:06:38;20.30;68.10
22098;DHT22;11215;51.938;8.464;2022-09-09T07:09:06;20.30;68.30
22098;DHT22;11215;51.938;8.464;2022-09-09T07:11:40;20.30;68.20
22098;DHT22;11215;51.938;8.464;2022-09-09T07:14:07;20.40;68.20
22098;DHT22;11215;51.938;8.464;2022-09-09T07:16:33;20.30;68.20
22098;DHT22;11215;51.938;8.464;2022-09-09T07:19:00;20.40;68.20
22098;DHT22;11215;51.938;8.464;2022-09-09T07:21:29;20.40;68.20
22098;DHT22;11215;51.938;8.464;2022-09-09T07:23:55;20.40;68.30
22098;DHT22;11215;51.938;8.464;2022-09-09T07:26:25;20.40;68.40
22098;DHT22;11215;51.938;8.464;2022-09-09T07:28:51;20.40;68.40
22098;DHT22;11215;51.938;8.464;2022-09-09T07:31:19;20.50;68.30
22098;DHT22;11215;51.938;8.464;2022-09-09T07:33:46;20.50;68.40
22098;DHT22;11215;51.938;8.464;2022-09-09T07:38:45;20.50;68.50
22098;DHT22;11215;51.938;8.464;2022-09-09T07:41:26;20.60;68.20
22098;DHT22;11215;51.938;8.464;2022-09-09T07:43:53;20.60;68.20
22098;DHT22;11215;51.938;8.464;2022-09-09T07:46:23;20.60;68.20
22098;DHT22;11215;51.938;8.464;2022-09-09T07:48:54;20.60;68.30
22098;DHT22;11215;51.938;8.464;2022-09-09T07:51:24;20.70;68.50
22098;DHT22;11215;51.938;8.464;2022-09-09T07:53:55;20.70;68.60
22098;DHT22;11215;51.938;8.464;2022-09-09T07:56:23;20.80;68.70
22098;DHT22;11215;51.938;8.464;2022-09-09T07:58:50;20.80;68.50
22098;DHT22;11215;51.938;8.464;2022-09-09T08:01:25;20.90;68.70
22098;DHT22;11215;51.938;8.464;2022-09-09T08:03:57;20.90;68.70
22098;DHT22;11215;51.938;8.464;2022-09-09T08:06:38;21.00;68.70
22098;DHT22;11215;51.938;8.464;2022-09-09T08:09:04;21.00;68.40
22098;DHT22;11215;51.938;8.464;2022-09-09T08:11:30;21.10;68.20
22098;DHT22;11215;51.938;8.464;2022-09-09T08:13:58;21.10;68.10
22098;DHT22;11215;51.938;8.464;2022-09-09T08:16:26;21.20;68.20
22098;DHT22;11215;51.938;8.464;2022-09-09T08:18:53;21.20;68.20
22098;DHT22;11215;51.938;8.464;2022-09-09T08:21:22;21.30;67.90
22098;DHT22;11215;51.938;8.464;2022-09-09T08:23:50;21.40;67.80
22098;DHT22;11215;51.938;8.464;2022-09-09T08:26:22;21.40;67.70
22098;DHT22;11215;51.938;8.464;2022-09-09T08:28:53;21.50;67.10
22098;DHT22;11215;51.938;8.464;2022-09-09T08:31:21;21.50;66.80
22098;DHT22;11215;51.938;8.464;2022-09-09T08:33:47;21.60;66.50
22098;DHT22;11215;51.938;8.464;2022-09-09T08:36:15;21.60;66.20
22098;DHT22;11215;51.938;8.464;2022-09-09T08:38:49;21.70;66.00
22098;DHT22;11215;51.938;8.464;2022-09-09T08:52:27;21.80;64.40
22098;DHT22;11215;51.938;8.464;2022-09-09T08:54:56;21.80;64.70
22098;DHT22;11215;51.938;8.464;2022-09-09T08:57:26;21.80;64.40
22098;DHT22;11215;51.938;8.464;2022-09-09T08:59:54;21.80;64.40
22098;DHT22;11215;51.938;8.464;2022-09-09T09:02:42;21.80;64.30
22098;DHT22;11215;51.938;8.464;2022-09-09T09:05:23;21.80;63.70
22098;DHT22;11215;51.938;8.464;2022-09-09T09:13:23;21.90;63.00
22098;DHT22;11215;51.938;8.464;2022-09-09T09:16:00;21.90;63.00
22098;DHT22;11215;51.938;8.464;2022-09-09T09:18:27;21.80;62.90
22098;DHT22;11215;51.938;8.464;2022-09-09T09:24:00;21.90;62.10
22098;DHT22;11215;51.938;8.464;2022-09-09T09:26:31;21.90;62.90
22098;DHT22;11215;51.938;8.464;2022-09-09T09:28:59;21.90;62.80
22098;DHT22;11215;51.938;8.464;2022-09-09T09:31:26;21.90;63.10
22098;DHT22;11215;51.938;8.464;2022-09-09T09:33:55;21.90;62.90
22098;DHT22;11215;51.938;8.464;2022-09-09T09:39:31;22.00;61.90
22098;DHT22;11215;51.938;8.464;2022-09-09T09:42:10;22.00;62.70
22098;DHT22;11215;51.938;8.464;2022-09-09T09:44:39;22.00;61.60
22098;DHT22;11215;51.938;8.464;2022-09-09T09:47:17;22.10;62.10
22098;DHT22;11215;51.938;8.464;2022-09-09T09:49:59;22.10;60.50
22098;DHT22;11215;51.938;8.464;2022-09-09T09:52:29;22.10;60.70
22098;DHT22;11215;51.938;8.464;2022-09-09T09:54:56;22.10;61.10
22098;DHT22;11215;51.938;8.464;2022-09-09T09:57:26;22.20;60.60
22098;DHT22;11215;51.938;8.464;2022-09-09T10:00:15;22.20;60.50
22098;DHT22;11215;51.938;8.464;2022-09-09T10:02:43;22.20;60.10
22098;DHT22;11215;51.938;8.464;2022-09-09T10:05:20;22.30;60.80
22098;DHT22;11215;51.938;8.464;2022-09-09T10:07:46;22.30;60.50
22098;DHT22;11215;51.938;8.464;2022-09-09T10:10:26;22.30;60.70
22098;DHT22;11215;51.938;8.464;2022-09-09T10:15:53;22.40;59.20
22098;DHT22;11215;51.938;8.464;2022-09-09T10:21:13;22.50;59.80
22098;DHT22;11215;51.938;8.464;2022-09-09T10:26:31;22.60;59.60
22098;DHT22;11215;51.938;8.464;2022-09-09T10:29:14;22.60;59.80
22098;DHT22;11215;51.938;8.464;2022-09-09T10:35:19;22.70;58.80
22098;DHT22;11215;51.938;8.464;2022-09-09T10:43:20;22.90;58.90
22098;DHT22;11215;51.938;8.464;2022-09-09T10:48:39;22.90;58.90
22098;DHT22;11215;51.938;8.464;2022-09-09T10:54:17;23.00;58.50
22098;DHT22;11215;51.938;8.464;2022-09-09T10:56:56;23.00;58.60
22098;DHT22;11215;51.938;8.464;2022-09-09T10:59:26;23.00;58.10
22098;DHT22;11215;51.938;8.464;2022-09-09T11:01:58;23.00;58.30
22098;DHT22;11215;51.938;8.464;2022-09-09T11:04:35;23.10;58.10
22098;DHT22;11215;51.938;8.464;2022-09-09T11:07:08;23.10;57.80
22098;DHT22;11215;51.938;8.464;2022-09-09T11:09:40;23.10;57.70
22098;DHT22;11215;51.938;8.464;2022-09-09T11:12:13;23.10;57.70
22098;DHT22;11215;51.938;8.464;2022-09-09T11:15:01;23.10;57.30
22098;DHT22;11215;51.938;8.464;2022-09-09T11:17:50;23.20;57.10
22098;DHT22;11215;51.938;8.464;2022-09-09T11:20:18;23.10;57.30
22098;DHT22;11215;51.938;8.464;2022-09-09T11:22:51;23.20;57.70
22098;DHT22;11215;51.938;8.464;2022-09-09T11:25:23;23.20;57.20
22098;DHT22;11215;51.938;8.464;2022-09-09T11:27:59;23.20;57.40
22098;DHT22;11215;51.938;8.464;2022-09-09T11:30:32;23.20;57.30
22098;DHT22;11215;51.938;8.464;2022-09-09T11:33:12;23.30;57.40
22098;DHT22;11215;51.938;8.464;2022-09-09T11:41:08;23.40;56.20
22098;DHT22;11215;51.938;8.464;2022-09-09T11:43:42;23.40;56.80
22098;DHT22;11215;51.938;8.464;2022-09-09T11:46:09;23.50;56.40
22098;DHT22;11215;51.938;8.464;2022-09-09T11:48:41;23.50;56.70
22098;DHT22;11215;51.938;8.464;2022-09-09T11:51:24;23.40;56.90
22098;DHT22;11215;51.938;8.464;2022-09-09T11:53:53;23.40;57.50
22098;DHT22;11215;51.938;8.464;2022-09-09T11:56:32;23.50;58.20
22098;DHT22;11215;51.938;8.464;2022-09-09T11:59:06;23.50;58.00
22098;DHT22;11215;51.938;8.464;2022-09-09T12:01:45;23.50;57.90
22098;DHT22;11215;51.938;8.464;2022-09-09T12:04:42;23.50;58.20
22098;DHT22;11215;51.938;8.464;2022-09-09T12:12:35;23.70;57.10
22098;DHT22;11215;51.938;8.464;2022-09-09T12:17:58;23.80;56.50
22098;DHT22;11215;51.938;8.464;2022-09-09T12:20:38;23.80;56.30
22098;DHT22;11215;51.938;8.464;2022-09-09T12:29:25;24.00;56.00
22098;DHT22;11215;51.938;8.464;2022-09-09T12:37:38;24.20;55.80
22098;DHT22;11215;51.938;8.464;2022-09-09T12:42:43;24.30;55.30
22098;DHT22;11215;51.938;8.464;2022-09-09T12:45:19;24.30;55.70
22098;DHT22;11215;51.938;8.464;2022-09-09T12:47:55;24.40;54.80
22098;DHT22;11215;51.938;8.464;2022-09-09T12:50:24;24.40;54.10
22098;DHT22;11215;51.938;8.464;2022-09-09T12:52:59;24.50;54.70
22098;DHT22;11215;51.938;8.464;2022-09-09T12:55:32;24.60;54.20
22098;DHT22;11215;51.938;8.464;2022-09-09T12:58:00;24.60;53.60
22098;DHT22;11215;51.938;8.464;2022-09-09T13:00:29;24.60;54.40
22098;DHT22;11215;51.938;8.464;2022-09-09T13:02:58;24.60;54.50
22098;DHT22;11215;51.938;8.464;2022-09-09T13:05:34;24.70;54.20
22098;DHT22;11215;51.938;8.464;2022-09-09T13:08:04;24.60;53.70
22098;DHT22;11215;51.938;8.464;2022-09-09T13:10:33;24.60;54.00
22098;DHT22;11215;51.938;8.464;2022-09-09T13:13:00;24.60;53.70
22098;DHT22;11215;51.938;8.464;2022-09-09T13:15:28;24.60;53.90
22098;DHT22;11215;51.938;8.464;2022-09-09T13:17:59;24.60;53.50
22098;DHT22;11215;51.938;8.464;2022-09-09T13:20:27;24.60;53.70
22098;DHT22;11215;51.938;8.464;2022-09-09T13:22:54;24.60;53.70
22098;DHT22;11215;51.938;8.464;2022-09-09T13:25:29;24.60;53.20
22098;DHT22;11215;51.938;8.464;2022-09-09T13:28:02;24.50;52.30
22098;DHT22;11215;51.938;8.464;2022-09-09T13:30:35;24.60;53.00
22098;DHT22;11215;51.938;8.464;2022-09-09T13:33:03;24.60;52.90
22098;DHT22;11215;51.938;8.464;2022-09-09T13:35:29;24.60;53.00
22098;DHT22;11215;51.938;8.464;2022-09-09T13:37:55;24.60;52.90
22098;DHT22;11215;51.938;8.464;2022-09-09T13:40:22;24.70;53.20
22098;DHT22;11215;51.938;8.464;2022-09-09T13:42:52;24.80;52.80
22098;DHT22;11215;51.938;8.464;2022-09-09T13:45:21;24.80;52.30
22098;DHT22;11215;51.938;8.464;2022-09-09T13:47:47;24.80;52.10
22098;DHT22;11215;51.938;8.464;2022-09-09T13:50:28;24.80;52.30
22098;DHT22;11215;51.938;8.464;2022-09-09T13:52:56;24.90;51.50
22098;DHT22;11215;51.938;8.464;2022-09-09T13:55:29;24.80;51.70
22098;DHT22;11215;51.938;8.464;2022-09-09T13:58:00;24.90;51.80
22098;DHT22;11215;51.938;8.464;2022-09-09T14:00:26;24.90;51.70
22098;DHT22;11215;51.938;8.464;2022-09-09T14:02:52;24.90;52.10
22098;DHT22;11215;51.938;8.464;2022-09-09T14:05:20;24.90;52.10
22098;DHT22;11215;51.938;8.464;2022-09-09T14:07:48;24.90;52.00
22098;DHT22;11215;51.938;8.464;2022-09-09T14:10:14;25.00;51.60
22098;DHT22;11215;51.938;8.464;2022-09-09T14:12:39;25.00;51.60
22098;DHT22;11215;51.938;8.464;2022-09-09T14:15:06;25.00;51.40
22098;DHT22;11215;51.938;8.464;2022-09-09T14:17:32;24.90;51.50
22098;DHT22;11215;51.938;8.464;2022-09-09T14:19:58;25.00;51.50
22098;DHT22;11215;51.938;8.464;2022-09-09T14:22:24;24.90;51.50
22098;DHT22;11215;51.938;8.464;2022-09-09T14:24:51;24.90;51.50
22098;DHT22;11215;51.938;8.464;2022-09-09T14:27:17;24.90;51.30
22098;DHT22;11215;51.938;8.464;2022-09-09T14:29:44;24.90;51.50
22098;DHT22;11215;51.938;8.464;2022-09-09T14:32:10;24.80;51.40
22098;DHT22;11215;51.938;8.464;2022-09-09T14:34:36;24.80;51.20
22098;DHT22;11215;51.938;8.464;2022-09-09T14:37:02;24.80;51.30
22098;DHT22;11215;51.938;8.464;2022-09-09T14:39:28;24.80;51.10
22098;DHT22;11215;51.938;8.464;2022-09-09T14:41:53;24.80;51.20
22098;DHT22;11215;51.938;8.464;2022-09-09T14:44:19;24.80;51.30
22098;DHT22;11215;51.938;8.464;2022-09-09T14:46:44;24.80;51.10
22098;DHT22;11215;51.938;8.464;2022-09-09T14:49:10;24.80;51.00
22098;DHT22;11215;51.938;8.464;2022-09-09T14:51:38;24.80;50.80
22098;DHT22;11215;51.938;8.464;2022-09-09T14:54:04;24.70;50.80
22098;DHT22;11215;51.938;8.464;2022-09-09T14:56:31;24.70;51.10
22098;DHT22;11215;51.938;8.464;2022-09-09T14:58:58;24.70;51.10
22098;DHT22;11215;51.938;8.464;2022-09-09T15:01:26;24.70;51.10
22098;DHT22;11215;51.938;8.464;2022-09-09T15:03:59;24.60;51.30
22098;DHT22;11215;51.938;8.464;2022-09-09T15:06:27;24.60;50.80
22098;DHT22;11215;51.938;8.464;2022-09-09T15:08:54;24.60;50.90
22098;DHT22;11215;51.938;8.464;2022-09-09T15:11:23;24.60;51.10
22098;DHT22;11215;51.938;8.464;2022-09-09T15:13:51;24.60;51.30
22098;DHT22;11215;51.938;8.464;2022-09-09T15:16:21;24.60;51.10
22098;DHT22;11215;51.938;8.464;2022-09-09T15:18:51;24.60;50.80
22098;DHT22;11215;51.938;8.464;2022-09-09T15:21:20;24.60;50.10
22098;DHT22;11215;51.938;8.464;2022-09-09T15:23:46;24.60;50.80
22098;DHT22;11215;51.938;8.464;2022-09-09T15:26:13;24.60;51.00
22098;DHT22;11215;51.938;8.464;2022-09-09T15:28:43;24.50;50.80
22098;DHT22;11215;51.938;8.464;2022-09-09T15:31:14;24.50;50.60
22098;DHT22;11215;51.938;8.464;2022-09-09T15:33:50;24.50;50.70
22098;DHT22;11215;51.938;8.464;2022-09-09T15:36:27;24.50;50.80
22098;DHT22;11215;51.938;8.464;2022-09-09T15:38:54;24.40;49.70
22098;DHT22;11215;51.938;8.464;2022-09-09T15:41:21;24.40;50.50
22098;DHT22;11215;51.938;8.464;2022-09-09T15:43:49;24.40;50.70
22098;DHT22;11215;51.938;8.464;2022-09-09T15:46:37;24.40;50.30
22098;DHT22;11215;51.938;8.464;2022-09-09T15:51:32;24.40;50.30
22098;DHT22;11215;51.938;8.464;2022-09-09T15:53:58;24.30;50.30
22098;DHT22;11215;51.938;8.464;2022-09-09T15:56:26;24.20;50.20
22098;DHT22;11215;51.938;8.464;2022-09-09T15:58:53;24.20;50.40
22098;DHT22;11215;51.938;8.464;2022-09-09T16:01:19;24.20;50.30
22098;DHT22;11215;51.938;8.464;2022-09-09T16:03:45;24.10;50.30
22098;DHT22;11215;51.938;8.464;2022-09-09T16:06:16;24.00;50.50
22098;DHT22;11215;51.938;8.464;2022-09-09T16:08:44;24.00;50.60
22098;DHT22;11215;51.938;8.464;2022-09-09T16:11:12;24.00;50.60
22098;DHT22;11215;51.938;8.464;2022-09-09T16:13:39;24.00;50.80
22098;DHT22;11215;51.938;8.464;2022-09-09T16:16:06;23.90;51.20
22098;DHT22;11215;51.938;8.464;2022-09-09T16:18:47;23.90;51.40
22098;DHT22;11215;51.938;8.464;2022-09-09T16:21:19;23.90;51.50
22098;DHT22;11215;51.938;8.464;2022-09-09T16:23:45;23.90;51.80
22098;DHT22;11215;51.938;8.464;2022-09-09T16:26:12;23.90;52.10
22098;DHT22;11215;51.938;8.464;2022-09-09T16:28:39;24.00;52.20
22098;DHT22;11215;51.938;8.464;2022-09-09T16:31:18;24.00;52.20
22098;DHT22;11215;51.938;8.464;2022-09-09T16:33:45;24.00;52.30
22098;DHT22;11215;51.938;8.464;2022-09-09T16:36:14;24.00;52.30
22098;DHT22;11215;51.938;8.464;2022-09-09T16:38:41;24.00;52.10
22098;DHT22;11215;51.938;8.464;2022-09-09T16:41:09;24.00;52.10
22098;DHT22;11215;51.938;8.464;2022-09-09T16:43:36;24.00;52.30
22098;DHT22;11215;51.938;8.464;2022-09-09T16:46:03;24.00;52.20
22098;DHT22;11215;51.938;8.464;2022-09-09T16:48:33;24.00;52.30
22098;DHT22;11215;51.938;8.464;2022-09-09T16:51:12;24.00;52.40
22098;DHT22;11215;51.938;8.464;2022-09-09T16:53:39;24.00;52.00
22098;DHT22;11215;51.938;8.464;2022-09-09T16:56:09;24.00;52.20
22098;DHT22;11215;51.938;8.464;2022-09-09T16:58:35;23.90;52.20
22098;DHT22;11215;51.938;8.464;2022-09-09T17:01:02;23.90;52.40
22098;DHT22;11215;51.938;8.464;2022-09-09T17:03:29;23.80;52.70
22098;DHT22;11215;51.938;8.464;2022-09-09T17:05:55;23.70;52.90
22098;DHT22;11215;51.938;8.464;2022-09-09T17:08:20;23.70;53.10
22098;DHT22;11215;51.938;8.464;2022-09-09T17:10:46;23.60;53.40
22098;DHT22;11215;51.938;8.464;2022-09-09T17:13:13;23.50;53.40
22098;DHT22;11215;51.938;8.464;2022-09-09T17:15:42;23.40;53.70
22098;DHT22;11215;51.938;8.464;2022-09-09T17:18:12;23.30;54.20
22098;DHT22;11215;51.938;8.464;2022-09-09T17:20:39;23.30;54.60
22098;DHT22;11215;51.938;8.464;2022-09-09T17:23:09;23.20;54.60
22098;DHT22;11215;51.938;8.464;2022-09-09T17:25:35;23.20;55.30
22098;DHT22;11215;51.938;8.464;2022-09-09T17:28:02;23.00;55.20
22098;DHT22;11215;51.938;8.464;2022-09-09T17:30:37;23.00;56.20
22098;DHT22;11215;51.938;8.464;2022-09-09T17:33:05;22.90;55.70
22098;DHT22;11215;51.938;8.464;2022-09-09T17:35:32;22.90;56.10
22098;DHT22;11215;51.938;8.464;2022-09-09T17:37:58;22.80;55.80
22098;DHT22;11215;51.938;8.464;2022-09-09T17:40:23;22.80;55.80
22098;DHT22;11215;51.938;8.464;2022-09-09T17:42:49;22.70;55.70
22098;DHT22;11215;51.938;8.464;2022-09-09T17:45:15;22.70;55.90
22098;DHT22;11215;51.938;8.464;2022-09-09T17:47:41;22.60;55.90
22098;DHT22;11215;51.938;8.464;2022-09-09T17:50:08;22.60;56.00
22098;DHT22;11215;51.938;8.464;2022-09-09T17:52:34;22.50;56.10
22098;DHT22;11215;51.938;8.464;2022-09-09T17:55:00;22.50;56.70